Time;durP1;ratioP1;P1;durP2;ratioP2;P2;SDS_P1;SDS_P2;PMS_P1;PMS_P2;Temp;Humidity;BMP_temperature;BMP_pressure;BME280_temperature;BME280_humidity;BME280_pressure;Samples;Min_cycle;Max_cycle;Signal;HPM_P1;HPM_P2
2022/08/25 00:01:01;;;;;;;7.93;7.22;;;22.60;60.70;;;;;;4975730;28;20089;-68
2022/08/25 00:03:27;;;;;;;7.55;6.85;;;22.60;60.80;;;;;;4990231;28;20057;-68
2022/08/25 00:05:52;;;;;;;8.63;7.35;;;22.60;60.90;;;;;;4994250;28;20398;-68
2022/08/25 00:08:18;;;;;;;7.72;7.07;;;22.50;61.40;;;;;;4981317;28;20057;-68
2022/08/25 00:10:44;;;;;;;7.72;6.97;;;22.40;60.90;;;;;;4988300;28;20073;-69
2022/08/25 00:13:10;;;;;;;8.07;7.32;;;22.40;61.00;;;;;;4985603;28;20039;-69
2022/08/25 00:15:37;;;;;;;7.25;6.55;;;22.40;61.00;;;;;;4992398;28;20090;-69
2022/08/25 00:18:04;;;;;;;7.20;6.50;;;22.40;61.10;;;;;;4983659;28;20066;-68
2022/08/25 00:20:30;;;;;;;8.27;7.57;;;22.30;61.10;;;;;;4985791;28;20046;-68
2022/08/25 00:22:56;;;;;;;8.15;7.10;;;22.30;61.20;;;;;;4993285;28;20038;-68
2022/08/25 00:25:22;;;;;;;9.15;7.00;;;22.20;61.20;;;;;;4992252;28;20494;-69
2022/08/25 00:27:49;;;;;;;7.03;6.32;;;22.20;61.30;;;;;;4991460;28;20038;-68
2022/08/25 00:30:16;;;;;;;8.10;6.68;;;22.20;61.30;;;;;;4983634;28;20054;-69
2022/08/25 00:32:43;;;;;;;7.25;6.45;;;22.10;61.30;;;;;;4991509;28;20129;-69
2022/08/25 00:35:09;;;;;;;7.07;6.38;;;22.10;61.30;;;;;;4963204;28;20059;-69
2022/08/25 00:37:37;;;;;;;9.00;6.78;;;22.10;61.40;;;;;;4977354;28;20041;-68
2022/08/25 00:40:05;;;;;;;7.40;6.75;;;22.10;61.50;;;;;;4984578;28;20050;-68
2022/08/25 00:42:30;;;;;;;6.90;6.15;;;22.10;61.50;;;;;;4976735;28;20042;-68
2022/08/25 00:44:57;;;;;;;6.57;5.60;;;22.00;61.40;;;;;;4992325;28;20044;-69
2022/08/25 00:47:24;;;;;;;8.07;7.03;;;22.00;61.40;;;;;;4986590;28;20039;-69
2022/08/25 00:49:57;;;;;;;7.97;7.18;;;22.00;61.50;;;;;;4980520;28;20047;-69
2022/08/25 00:52:29;;;;;;;7.22;6.35;;;21.90;61.50;;;;;;4973092;28;20051;-68
2022/08/25 00:55:23;;;;;;;6.82;6.13;;;21.90;61.50;;;;;;4977109;28;20530;-69
2022/08/25 00:58:02;;;;;;;7.80;6.50;;;21.90;61.20;;;;;;4987311;28;20454;-69
2022/08/25 01:00:33;;;;;;;7.00;6.30;;;21.80;61.50;;;;;;4984428;28;20129;-69
2022/08/25 01:02:58;;;;;;;6.82;6.20;;;21.80;61.50;;;;;;4991538;28;20046;-69
2022/08/25 01:05:26;;;;;;;7.20;5.97;;;21.80;61.50;;;;;;4992182;28;20042;-69
2022/08/25 01:07:52;;;;;;;7.05;6.25;;;21.80;61.50;;;;;;4978009;28;20042;-69
2022/08/25 01:10:20;;;;;;;6.80;6.07;;;21.70;61.70;;;;;;4984641;28;20050;-69
2022/08/25 01:12:47;;;;;;;8.05;5.82;;;21.70;61.50;;;;;;4977835;28;20043;-69
2022/08/25 01:15:14;;;;;;;7.07;6.40;;;21.70;61.50;;;;;;4995236;28;20045;-69
2022/08/25 01:17:47;;;;;;;8.25;6.45;;;21.60;61.60;;;;;;4995627;28;20159;-69
2022/08/25 01:20:13;;;;;;;6.75;6.13;;;21.60;61.20;;;;;;4993420;28;20053;-69
2022/08/25 01:22:39;;;;;;;6.10;5.50;;;21.60;61.20;;;;;;4997200;28;20402;-68
2022/08/25 01:25:19;;;;;;;8.02;6.10;;;21.50;61.20;;;;;;4980437;28;20041;-68
2022/08/25 01:27:45;;;;;;;7.45;5.85;;;21.50;61.30;;;;;;4976167;28;20047;-68
2022/08/25 01:30:11;;;;;;;6.18;5.55;;;21.50;60.80;;;;;;4987816;28;20097;-68
2022/08/25 01:32:36;;;;;;;5.72;5.13;;;21.40;60.70;;;;;;4981505;28;20038;-68
2022/08/25 01:35:02;;;;;;;6.47;5.13;;;21.40;60.80;;;;;;5011716;28;20058;-68
2022/08/25 01:37:28;;;;;;;5.97;4.70;;;21.40;60.60;;;;;;4961926;28;20065;-68
2022/08/25 01:39:54;;;;;;;6.22;4.95;;;21.30;60.60;;;;;;4984678;28;20042;-68
2022/08/25 01:42:25;;;;;;;5.13;4.63;;;21.30;60.40;;;;;;4995194;28;20481;-68
2022/08/25 01:44:51;;;;;;;5.32;4.38;;;21.30;60.40;;;;;;4982016;28;20114;-68
2022/08/25 01:47:17;;;;;;;5.07;4.57;;;21.20;60.40;;;;;;4976091;28;20138;-68
2022/08/25 01:49:43;;;;;;;5.85;4.25;;;21.20;60.10;;;;;;4987872;28;20035;-67
2022/08/25 01:52:28;;;;;;;4.28;3.88;;;21.20;60.20;;;;;;4995958;28;20052;-67
2022/08/25 01:54:54;;;;;;;7.50;4.22;;;21.20;60.00;;;;;;4989477;28;20570;-68
2022/08/25 01:57:21;;;;;;;4.35;3.90;;;21.10;59.90;;;;;;4995209;28;20129;-67
2022/08/25 01:59:47;;;;;;;4.70;3.88;;;21.10;59.70;;;;;;4986820;28;20051;-68
2022/08/25 02:02:12;;;;;;;6.45;3.80;;;21.00;59.50;;;;;;4983242;28;20042;-68
2022/08/25 02:04:38;;;;;;;5.47;3.53;;;21.00;59.40;;;;;;5009862;28;20046;-67
2022/08/25 02:07:06;;;;;;;5.65;3.53;;;20.90;59.10;;;;;;4975720;28;20047;-67
2022/08/25 02:09:33;;;;;;;5.75;4.30;;;20.90;59.10;;;;;;4982050;28;20057;-67
2022/08/25 02:11:59;;;;;;;6.28;4.05;;;20.90;58.80;;;;;;4996520;28;20450;-68
2022/08/25 02:14:27;;;;;;;6.45;4.32;;;20.80;58.30;;;;;;4990806;28;20042;-67
2022/08/25 02:16:54;;;;;;;4.78;3.50;;;20.80;58.10;;;;;;4976701;28;20372;-67
2022/08/25 02:19:22;;;;;;;4.88;4.00;;;20.80;58.00;;;;;;4976884;28;20053;-68
2022/08/25 02:21:47;;;;;;;5.22;3.75;;;20.70;57.90;;;;;;4973727;28;20049;-67
2022/08/25 02:24:13;;;;;;;5.70;3.70;;;20.70;57.50;;;;;;4993218;28;20042;-68
2022/08/25 02:26:40;;;;;;;5.65;3.67;;;20.60;57.50;;;;;;4976377;28;20070;-68
2022/08/25 02:29:06;;;;;;;5.68;3.40;;;20.50;57.40;;;;;;4979297;28;20042;-68
2022/08/25 02:31:32;;;;;;;5.90;4.00;;;20.50;57.30;;;;;;4976484;28;20043;-68
2022/08/25 02:33:58;;;;;;;7.68;3.63;;;20.40;57.10;;;;;;4975397;28;20059;-69
2022/08/25 02:36:24;;;;;;;6.93;3.22;;;20.40;57.00;;;;;;4993893;28;20082;-69
2022/08/25 02:38:50;;;;;;;6.10;3.38;;;20.40;57.30;;;;;;4993264;28;20590;-69
2022/08/25 02:41:20;;;;;;;9.10;3.55;;;20.40;57.20;;;;;;4975622;28;20039;-69
2022/08/25 02:43:47;;;;;;;4.90;2.88;;;20.30;57.10;;;;;;4988540;28;20458;-69
2022/08/25 02:46:14;;;;;;;8.10;3.95;;;20.30;57.00;;;;;;4989356;28;20097;-69
2022/08/25 02:48:40;;;;;;;6.68;3.55;;;20.30;56.90;;;;;;4987643;28;20101;-69
2022/08/25 02:51:08;;;;;;;5.18;3.38;;;20.30;57.10;;;;;;4976141;28;20408;-69
2022/08/25 02:53:38;;;;;;;5.10;3.05;;;20.30;57.00;;;;;;4980517;28;20561;-69
2022/08/25 02:56:04;;;;;;;8.50;3.67;;;20.20;56.50;;;;;;4993161;28;20429;-69
2022/08/25 02:58:30;;;;;;;5.88;3.25;;;20.30;56.60;;;;;;4992660;28;20038;-69
2022/08/25 03:00:56;;;;;;;10.80;3.38;;;20.20;56.60;;;;;;4995324;28;20505;-68
2022/08/25 03:03:22;;;;;;;6.10;3.30;;;20.20;56.40;;;;;;4992399;28;20505;-68
2022/08/25 03:05:47;;;;;;;6.53;3.28;;;20.20;56.50;;;;;;4982648;28;20138;-68
2022/08/25 03:08:13;;;;;;;5.95;3.60;;;20.20;56.30;;;;;;4992450;28;20050;-68
2022/08/25 03:10:39;;;;;;;4.47;3.10;;;20.20;56.30;;;;;;4974415;28;20483;-67
2022/08/25 03:13:04;;;;;;;6.60;3.10;;;20.20;56.70;;;;;;4990418;28;20044;-67
2022/08/25 03:15:31;;;;;;;4.43;2.78;;;20.20;56.40;;;;;;4983967;28;20474;-67
2022/08/25 03:17:57;;;;;;;4.72;3.05;;;20.20;56.50;;;;;;4974437;28;20045;-67
2022/08/25 03:20:24;;;;;;;4.40;3.28;;;20.10;56.50;;;;;;5009654;28;20081;-67
2022/08/25 03:22:50;;;;;;;4.90;3.20;;;20.20;56.50;;;;;;4993614;28;20574;-67
2022/08/25 03:28:02;;;;;;;4.70;3.00;;;20.10;56.40;;;;;;4976065;28;20577;-67
2022/08/25 03:30:28;;;;;;;6.53;3.55;;;20.10;56.50;;;;;;4978004;28;20051;-67
2022/08/25 03:32:55;;;;;;;5.80;3.05;;;20.10;56.60;;;;;;5009553;28;20034;-67
2022/08/25 03:35:21;;;;;;;3.88;3.03;;;20.00;56.50;;;;;;4980204;28;20047;-67
2022/08/25 03:37:47;;;;;;;5.03;3.00;;;20.00;56.40;;;;;;4973895;28;20043;-67
2022/08/25 03:40:15;;;;;;;5.18;3.00;;;19.90;56.40;;;;;;4986196;28;20093;-67
2022/08/25 03:42:44;;;;;;;5.70;3.72;;;20.00;56.30;;;;;;4974121;28;20395;-67
2022/08/25 03:45:12;;;;;;;4.93;3.40;;;19.90;56.30;;;;;;4967869;28;20040;-67
2022/08/25 03:47:39;;;;;;;4.32;3.10;;;19.90;56.40;;;;;;4992488;28;20040;-67
2022/08/25 03:50:07;;;;;;;6.82;3.47;;;19.90;56.50;;;;;;4981874;28;20478;-67
2022/08/25 03:52:33;;;;;;;4.63;3.40;;;19.80;56.40;;;;;;4975784;28;20061;-67
2022/08/25 03:54:59;;;;;;;5.15;3.50;;;19.90;56.50;;;;;;4983529;28;20054;-67
2022/08/25 03:57:25;;;;;;;5.57;2.95;;;19.80;56.80;;;;;;4973759;28;20268;-67
2022/08/25 03:59:51;;;;;;;6.68;3.47;;;19.80;56.30;;;;;;4986453;28;20054;-67
2022/08/25 04:02:17;;;;;;;3.92;3.00;;;19.80;56.20;;;;;;4992997;28;20046;-67
2022/08/25 04:04:43;;;;;;;4.43;3.13;;;19.80;56.30;;;;;;4986757;28;20035;-67
2022/08/25 04:07:09;;;;;;;5.35;3.67;;;19.80;56.40;;;;;;4973481;28;20126;-67
2022/08/25 04:09:35;;;;;;;4.35;3.00;;;19.80;56.20;;;;;;4977787;28;20035;-67
2022/08/25 04:12:00;;;;;;;5.25;3.35;;;19.80;56.20;;;;;;4993983;28;20089;-67
2022/08/25 04:14:26;;;;;;;5.00;2.97;;;19.80;56.20;;;;;;4982713;28;20049;-67
2022/08/25 04:16:52;;;;;;;4.10;3.00;;;19.70;56.30;;;;;;4993945;28;20497;-67
2022/08/25 04:19:19;;;;;;;5.78;3.22;;;19.70;56.40;;;;;;4982132;28;20074;-67
2022/08/25 04:21:45;;;;;;;6.07;2.75;;;19.70;56.40;;;;;;4979056;28;20130;-67
2022/08/25 04:24:12;;;;;;;6.25;3.30;;;19.70;56.40;;;;;;4974425;28;20078;-67
2022/08/25 04:26:41;;;;;;;7.53;3.70;;;19.70;56.20;;;;;;5008322;28;20038;-67
2022/08/25 04:29:09;;;;;;;5.53;3.53;;;19.70;56.20;;;;;;4983473;28;20570;-67
2022/08/25 04:31:35;;;;;;;7.43;3.00;;;19.70;56.30;;;;;;4973903;28;20121;-67
2022/08/25 04:34:03;;;;;;;4.03;2.72;;;19.70;56.40;;;;;;4993595;28;20054;-67
2022/08/25 04:36:28;;;;;;;5.50;3.25;;;19.70;56.50;;;;;;4977710;28;20042;-67
2022/08/25 04:38:54;;;;;;;4.38;2.95;;;19.70;56.50;;;;;;4985016;28;20141;-67
2022/08/25 04:41:23;;;;;;;3.65;2.75;;;19.70;56.40;;;;;;4988925;28;20056;-67
2022/08/25 04:43:49;;;;;;;4.43;3.17;;;19.70;56.50;;;;;;4992087;28;20518;-67
2022/08/25 04:46:21;;;;;;;6.53;3.20;;;19.70;56.50;;;;;;4990487;28;20482;-67
2022/08/25 04:48:48;;;;;;;6.65;3.25;;;19.70;56.50;;;;;;4987654;28;20091;-68
2022/08/25 04:51:23;;;;;;;4.75;2.88;;;19.70;56.70;;;;;;4984651;28;20116;-68
2022/08/25 04:53:49;;;;;;;5.05;3.33;;;19.70;56.60;;;;;;4991911;28;20054;-68
2022/08/25 04:56:17;;;;;;;3.53;2.78;;;19.70;56.90;;;;;;4978973;28;20038;-68
2022/08/25 04:58:45;;;;;;;7.20;3.10;;;19.70;56.80;;;;;;4976675;28;20038;-68
2022/08/25 05:01:16;;;;;;;5.80;3.15;;;19.60;56.50;;;;;;4984834;28;20041;-69
2022/08/25 05:03:42;;;;;;;6.57;3.35;;;19.60;56.50;;;;;;4993579;28;20057;-69
2022/08/25 05:06:08;;;;;;;4.50;2.95;;;19.60;56.50;;;;;;4992871;28;20413;-69
2022/08/25 05:08:34;;;;;;;5.18;2.90;;;19.60;56.50;;;;;;4988244;28;20038;-69
2022/08/25 05:11:08;;;;;;;5.60;3.03;;;19.50;56.50;;;;;;4980709;28;20121;-68
2022/08/25 05:13:35;;;;;;;4.55;3.30;;;19.50;56.50;;;;;;4979418;28;20043;-69
2022/08/25 05:16:01;;;;;;;6.18;3.30;;;19.50;56.60;;;;;;4988074;28;20046;-69
2022/08/25 05:18:29;;;;;;;7.82;3.70;;;19.50;56.60;;;;;;4991628;28;20045;-69
2022/08/25 05:20:56;;;;;;;6.35;3.30;;;19.60;57.10;;;;;;4991606;28;20502;-69
2022/08/25 05:23:24;;;;;;;5.30;2.85;;;19.50;56.60;;;;;;4992226;28;20078;-70
2022/08/25 05:25:51;;;;;;;5.13;2.78;;;19.50;56.70;;;;;;4986658;28;20035;-69
2022/08/25 05:28:18;;;;;;;4.97;3.13;;;19.60;56.70;;;;;;4976156;28;20041;-69
2022/08/25 05:30:45;;;;;;;4.55;3.30;;;19.60;56.60;;;;;;4961119;28;20050;-69
2022/08/25 05:33:12;;;;;;;6.93;3.20;;;19.60;56.70;;;;;;4976274;28;20545;-70
2022/08/25 05:35:38;;;;;;;5.13;3.40;;;19.60;56.80;;;;;;4975771;28;20050;-70
2022/08/25 05:38:05;;;;;;;5.20;2.90;;;19.70;57.10;;;;;;4992857;28;20038;-70
2022/08/25 05:40:31;;;;;;;7.30;3.45;;;19.70;56.60;;;;;;4985438;28;20042;-69
2022/08/25 05:42:57;;;;;;;4.00;3.10;;;19.70;56.50;;;;;;4981442;28;20031;-70
2022/08/25 05:45:23;;;;;;;7.68;3.47;;;19.70;56.70;;;;;;4977231;28;20038;-71
2022/08/25 05:47:49;;;;;;;6.80;3.45;;;19.80;56.80;;;;;;5006802;28;20050;-69
2022/08/25 05:50:16;;;;;;;7.10;3.25;;;19.80;56.70;;;;;;4991965;28;20054;-69
2022/08/25 05:52:42;;;;;;;4.65;3.40;;;19.80;56.70;;;;;;4977158;28;20042;-69
2022/08/25 05:55:08;;;;;;;5.65;2.90;;;19.90;56.60;;;;;;4959741;28;20051;-69
2022/08/25 05:57:35;;;;;;;7.93;2.85;;;19.90;56.60;;;;;;4990480;28;20493;-65
2022/08/25 06:00:01;;;;;;;4.85;3.20;;;19.90;56.70;;;;;;4996319;28;20057;-65
2022/08/25 06:02:47;;;;;;;3.92;2.63;;;20.00;56.90;;;;;;4982223;28;20039;-69
2022/08/25 06:05:21;;;;;;;5.95;3.00;;;20.10;56.50;;;;;;4969151;28;20046;-67
2022/08/25 06:07:50;;;;;;;8.45;3.35;;;20.30;56.30;;;;;;4981892;28;20375;-68
2022/08/25 06:10:18;;;;;;;6.03;2.72;;;20.40;56.20;;;;;;4977743;28;20494;-68
2022/08/25 06:12:45;;;;;;;5.65;3.80;;;20.60;55.90;;;;;;4982186;28;20042;-69
2022/08/25 06:15:13;;;;;;;5.97;3.15;;;20.80;55.80;;;;;;4976753;28;20360;-68
2022/08/25 06:17:45;;;;;;;6.22;3.03;;;20.90;55.30;;;;;;4988916;28;20045;-68
2022/08/25 06:20:15;;;;;;;5.57;3.08;;;21.10;55.20;;;;;;4990315;28;20050;-68
2022/08/25 06:22:41;;;;;;;6.07;3.28;;;21.20;55.00;;;;;;4986254;28;20478;-68
2022/08/25 06:25:08;;;;;;;7.22;3.22;;;21.40;54.70;;;;;;4996063;28;20121;-68
2022/08/25 06:27:34;;;;;;;5.82;2.60;;;21.50;54.40;;;;;;4984672;28;20085;-67
2022/08/25 06:30:03;;;;;;;7.38;2.65;;;21.80;54.40;;;;;;4975224;28;20046;-68
2022/08/25 06:32:38;;;;;;;6.18;3.30;;;21.90;54.00;;;;;;5010599;28;20108;-68
2022/08/25 06:35:05;;;;;;;5.22;2.83;;;22.10;53.90;;;;;;4994547;28;20502;-68
2022/08/25 06:37:31;;;;;;;7.05;3.10;;;22.30;53.80;;;;;;4991896;28;20044;-68
2022/08/25 06:39:57;;;;;;;5.18;2.67;;;22.50;53.20;;;;;;4995460;28;20039;-68
2022/08/25 06:42:23;;;;;;;6.00;2.92;;;22.70;53.00;;;;;;4992419;28;20077;-68
2022/08/25 06:44:48;;;;;;;6.60;2.80;;;22.90;52.60;;;;;;4994408;28;20125;-68
2022/08/25 06:47:15;;;;;;;6.07;2.92;;;23.10;52.50;;;;;;4994065;28;20078;-68
2022/08/25 06:49:42;;;;;;;4.38;2.47;;;23.20;52.10;;;;;;4994537;28;20402;-68
2022/08/25 06:52:08;;;;;;;4.78;2.85;;;23.40;51.90;;;;;;4961832;28;20045;-68
2022/08/25 06:54:34;;;;;;;4.60;2.70;;;23.60;51.70;;;;;;4959942;28;20039;-68
2022/08/25 06:57:00;;;;;;;6.38;3.00;;;23.80;51.40;;;;;;4975952;28;20043;-68
2022/08/25 06:59:26;;;;;;;6.47;3.17;;;24.00;50.90;;;;;;5010199;28;20121;-68
2022/08/25 07:01:52;;;;;;;5.78;2.55;;;24.10;50.50;;;;;;4993162;28;20047;-69
2022/08/25 07:04:18;;;;;;;7.15;3.40;;;24.20;50.10;;;;;;4989889;28;20034;-69
2022/08/25 07:06:44;;;;;;;6.38;2.80;;;24.20;50.00;;;;;;4994215;28;20042;-68
2022/08/25 07:09:11;;;;;;;5.25;2.80;;;24.20;49.80;;;;;;4981595;28;20390;-68
2022/08/25 07:11:39;;;;;;;5.90;3.00;;;24.30;50.00;;;;;;4985250;28;20474;-68
2022/08/25 07:14:07;;;;;;;5.05;2.90;;;24.40;49.80;;;;;;4992478;28;20054;-68
2022/08/25 07:16:34;;;;;;;6.85;3.58;;;24.50;49.70;;;;;;4990141;28;20047;-68
2022/08/25 07:19:00;;;;;;;7.55;3.05;;;24.50;49.60;;;;;;4984780;28;20125;-68
2022/08/25 07:21:28;;;;;;;5.38;3.42;;;24.50;49.70;;;;;;4982763;28;20078;-68
2022/08/25 07:23:54;;;;;;;7.07;3.00;;;24.60;49.70;;;;;;4983074;28;20084;-68
2022/08/25 07:26:22;;;;;;;7.28;2.85;;;24.60;50.00;;;;;;4993595;28;20073;-68
2022/08/25 07:28:48;;;;;;;10.40;3.45;;;24.70;49.80;;;;;;4984461;28;20101;-68
2022/08/25 07:31:14;;;;;;;7.85;2.92;;;24.80;49.60;;;;;;4982614;28;20108;-68
2022/08/25 07:35:14;;;;;;;4.78;2.80;;;24.90;49.40;;;;;;4987830;28;20051;-68
2022/08/25 07:36:30;;;;;;;4.85;2.78;;;25.00;49.20;;;;;;4975241;28;20181;-69
2022/08/25 07:38:57;;;;;;;7.25;3.15;;;25.10;49.00;;;;;;4981536;28;20035;-67
2022/08/25 07:41:23;;;;;;;6.47;3.15;;;25.10;49.20;;;;;;4987302;28;20043;-67
2022/08/25 07:43:49;;;;;;;4.70;2.90;;;25.20;49.10;;;;;;4974108;28;20105;-68
2022/08/25 07:46:14;;;;;;;4.90;2.70;;;25.30;49.40;;;;;;4973987;28;20039;-68
2022/08/25 07:48:40;;;;;;;5.15;2.97;;;25.40;49.80;;;;;;4976984;28;20121;-68
2022/08/25 07:51:09;;;;;;;5.90;3.20;;;25.50;49.00;;;;;;4987282;28;20109;-68
2022/08/25 07:53:35;;;;;;;5.30;3.20;;;25.60;48.90;;;;;;4976495;28;20390;-68
2022/08/25 07:56:01;;;;;;;5.07;2.92;;;25.60;48.70;;;;;;4992671;28;20447;-67
2022/08/25 07:58:27;;;;;;;5.05;3.22;;;25.70;48.60;;;;;;4992732;28;20042;-67
2022/08/25 08:00:53;;;;;;;7.65;2.67;;;25.70;48.40;;;;;;4973832;28;20053;-67
2022/08/25 08:03:19;;;;;;;5.97;2.67;;;25.80;47.80;;;;;;4973545;28;20042;-67
2022/08/25 08:05:46;;;;;;;4.10;2.53;;;25.90;47.90;;;;;;4992723;28;20042;-67
2022/08/25 08:08:12;;;;;;;4.75;2.47;;;25.90;47.60;;;;;;4992955;28;20042;-67
2022/08/25 08:10:39;;;;;;;6.13;2.53;;;26.00;47.50;;;;;;4990745;28;20065;-67
2022/08/25 08:13:05;;;;;;;4.80;3.00;;;26.10;47.40;;;;;;4982137;28;20042;-67
2022/08/25 08:15:31;;;;;;;4.15;2.80;;;26.20;47.50;;;;;;4992325;28;20042;-67
2022/08/25 08:17:58;;;;;;;5.68;2.65;;;26.30;47.10;;;;;;4992986;28;20042;-68
2022/08/25 08:20:24;;;;;;;5.78;2.72;;;26.40;47.00;;;;;;4981302;28;20049;-68
2022/08/25 08:22:50;;;;;;;5.97;2.88;;;26.50;47.30;;;;;;4992935;28;20121;-68
2022/08/25 08:25:16;;;;;;;4.38;2.25;;;26.60;47.10;;;;;;4991044;28;20042;-68
2022/08/25 08:27:43;;;;;;;4.68;2.88;;;26.70;46.40;;;;;;4993707;28;20038;-68
2022/08/25 08:30:09;;;;;;;7.45;3.20;;;26.80;46.30;;;;;;4992797;28;20054;-68
2022/08/25 08:32:35;;;;;;;5.72;2.60;;;26.90;46.10;;;;;;4974616;28;20400;-68
2022/08/25 08:35:01;;;;;;;5.47;3.08;;;27.00;45.90;;;;;;4982218;28;20054;-68
2022/08/25 08:37:26;;;;;;;5.57;3.00;;;27.00;45.60;;;;;;4992880;28;20042;-67
2022/08/25 08:39:52;;;;;;;6.93;2.65;;;27.10;45.40;;;;;;4975773;28;20512;-67
2022/08/25 08:42:36;;;;;;;5.03;2.55;;;27.20;45.30;;;;;;4975834;28;20224;-68
2022/08/25 08:45:31;;;;;;;7.22;2.35;;;27.30;45.40;;;;;;4979730;28;20070;-69
2022/08/25 08:48:18;;;;;;;5.47;2.30;;;27.40;45.40;;;;;;4968092;28;20118;-69
2022/08/25 08:51:14;;;;;;;4.53;2.45;;;27.60;45.00;;;;;;4984580;28;20088;-69
2022/08/25 08:53:58;;;;;;;6.15;3.20;;;27.70;45.10;;;;;;4992393;28;20038;-69
2022/08/25 08:56:42;;;;;;;6.22;2.42;;;27.80;44.90;;;;;;4975760;28;20064;-69
2022/08/25 08:59:18;;;;;;;6.63;2.45;;;28.00;43.90;;;;;;4973061;28;20569;-69
2022/08/25 09:01:58;;;;;;;5.88;2.83;;;28.00;43.50;;;;;;4991054;28;20053;-69
2022/08/25 09:05:01;;;;;;;3.88;2.58;;;28.00;43.40;;;;;;4990775;28;20106;-68
2022/08/25 09:07:59;;;;;;;5.75;2.22;;;28.10;43.50;;;;;;4962820;28;20392;-67
2022/08/25 09:10:39;;;;;;;5.15;2.30;;;28.20;42.90;;;;;;4966325;28;20133;-68
2022/08/25 09:13:22;;;;;;;4.65;1.88;;;28.30;42.30;;;;;;4974186;28;20046;-67
2022/08/25 09:19:27;;;;;;;5.45;2.58;;;28.50;41.90;;;;;;4992267;28;20133;-67
2022/08/25 09:22:12;;;;;;;4.47;2.53;;;28.60;41.40;;;;;;4990740;28;20043;-67
2022/08/25 09:25:03;;;;;;;6.18;2.15;;;28.70;41.90;;;;;;4992152;28;20042;-68
2022/08/25 09:27:58;;;;;;;5.38;2.13;;;28.80;41.20;;;;;;4981952;28;20133;-66
2022/08/25 09:30:24;;;;;;;5.38;2.33;;;28.90;41.00;;;;;;4992162;28;20077;-68
2022/08/25 09:33:02;;;;;;;6.25;2.00;;;29.00;40.20;;;;;;4992314;28;20038;-66
2022/08/25 09:35:34;;;;;;;4.35;1.90;;;29.10;39.90;;;;;;4990372;28;20057;-67
2022/08/25 09:38:08;;;;;;;4.28;2.20;;;29.20;40.30;;;;;;4990818;28;20076;-66
2022/08/25 09:40:40;;;;;;;4.45;1.77;;;29.30;40.30;;;;;;4990641;28;20053;-66
2022/08/25 09:43:23;;;;;;;3.47;1.60;;;29.40;40.00;;;;;;4991953;28;20093;-67
2022/08/25 09:46:00;;;;;;;5.03;2.10;;;29.60;38.50;;;;;;4991684;28;20478;-66
2022/08/25 09:48:27;;;;;;;3.10;1.80;;;29.70;38.60;;;;;;4993225;28;20074;-67
2022/08/25 09:51:01;;;;;;;6.10;2.30;;;29.80;38.90;;;;;;4974153;28;20050;-66
2022/08/25 09:53:28;;;;;;;5.35;2.08;;;29.90;37.70;;;;;;4991943;28;20050;-66
2022/08/25 09:56:04;;;;;;;4.05;2.25;;;29.80;37.50;;;;;;4990348;28;20101;-67
2022/08/25 09:58:30;;;;;;;3.65;2.08;;;29.80;37.20;;;;;;4990431;28;20478;-68
2022/08/25 10:01:03;;;;;;;4.78;2.22;;;29.80;36.90;;;;;;4991382;28;20100;-68
2022/08/25 10:03:31;;;;;;;3.30;2.20;;;30.00;37.10;;;;;;4993029;28;20052;-68
2022/08/25 10:05:59;;;;;;;4.50;1.95;;;30.00;37.00;;;;;;4992275;28;20046;-67
2022/08/25 10:08:30;;;;;;;5.35;2.25;;;30.10;37.00;;;;;;4992721;28;20042;-68
2022/08/25 10:10:57;;;;;;;4.72;1.80;;;30.20;36.70;;;;;;4988836;28;20089;-68
2022/08/25 10:13:38;;;;;;;6.30;2.13;;;30.20;36.60;;;;;;4975040;28;20053;-66
2022/08/25 10:16:26;;;;;;;4.45;2.17;;;30.40;36.60;;;;;;4990035;28;20117;-66
2022/08/25 10:19:11;;;;;;;6.90;1.80;;;30.40;37.00;;;;;;4991558;28;20054;-67
2022/08/25 10:21:39;;;;;;;3.75;2.20;;;30.40;37.00;;;;;;4990011;28;20053;-68
2022/08/25 10:24:07;;;;;;;4.53;2.28;;;30.50;37.00;;;;;;4992648;28;20030;-67
2022/08/25 10:26:59;;;;;;;4.28;1.95;;;30.50;36.80;;;;;;4990537;28;20121;-67
2022/08/25 10:29:58;;;;;;;4.65;2.20;;;30.60;36.50;;;;;;4990747;28;20038;-67
2022/08/25 10:32:30;;;;;;;6.63;2.20;;;30.70;37.20;;;;;;4990520;28;20056;-67
2022/08/25 10:34:58;;;;;;;4.13;1.80;;;30.80;35.90;;;;;;4989723;28;20066;-67
2022/08/25 10:37:39;;;;;;;2.72;1.83;;;30.80;35.40;;;;;;4974077;28;20069;-67
2022/08/25 10:40:16;;;;;;;4.80;2.05;;;30.90;35.90;;;;;;4989198;28;20043;-67
2022/08/25 10:42:52;;;;;;;3.92;2.05;;;31.00;35.10;;;;;;4990278;28;20034;-67
2022/08/25 10:45:42;;;;;;;2.92;1.92;;;31.00;35.60;;;;;;4989943;28;20478;-67
2022/08/25 10:48:31;;;;;;;2.70;2.15;;;31.00;35.70;;;;;;4991405;28;20034;-67
2022/08/25 10:51:02;;;;;;;3.58;2.03;;;31.00;35.70;;;;;;4990739;28;20045;-67
2022/08/25 10:53:41;;;;;;;4.78;2.20;;;31.00;35.90;;;;;;4990044;28;20065;-68
2022/08/25 10:56:23;;;;;;;4.47;2.03;;;31.10;35.30;;;;;;4989513;28;20050;-69
2022/08/25 10:59:28;;;;;;;8.07;2.53;;;31.10;35.20;;;;;;4990218;28;20072;-68
2022/08/25 11:01:56;;;;;;;4.03;2.03;;;31.20;35.70;;;;;;4989332;28;20088;-67
2022/08/25 11:04:38;;;;;;;3.38;1.95;;;31.20;35.20;;;;;;4991390;28;20052;-67
2022/08/25 11:07:18;;;;;;;3.75;2.08;;;31.20;35.10;;;;;;4991184;28;20035;-67
2022/08/25 11:09:47;;;;;;;5.65;2.30;;;31.20;35.80;;;;;;4989261;28;20398;-67
2022/08/25 11:12:30;;;;;;;3.00;2.00;;;31.30;35.50;;;;;;4990144;28;20128;-70
2022/08/25 11:15:09;;;;;;;5.83;1.97;;;31.30;35.20;;;;;;4988709;28;20133;-70
2022/08/25 11:18:01;;;;;;;4.95;2.90;;;31.20;35.00;;;;;;4989699;28;20071;-71
2022/08/25 11:20:45;;;;;;;3.28;2.25;;;31.20;35.30;;;;;;4990498;28;20096;-71
2022/08/25 11:23:26;;;;;;;4.20;2.15;;;31.20;35.70;;;;;;4991954;28;20085;-71
2022/08/25 11:25:58;;;;;;;3.53;2.78;;;31.20;35.50;;;;;;4993160;28;20046;-70
2022/08/25 11:28:45;;;;;;;3.05;2.00;;;31.20;35.50;;;;;;4992553;28;20041;-71
2022/08/25 11:31:12;;;;;;;3.08;2.40;;;31.40;35.60;;;;;;4979283;28;20525;-71
2022/08/25 11:33:38;;;;;;;4.72;2.20;;;31.40;35.60;;;;;;4986646;28;20066;-71
2022/08/25 11:36:34;;;;;;;5.78;2.65;;;31.40;35.00;;;;;;4985392;28;20049;-72
2022/08/25 11:39:07;;;;;;;4.05;2.35;;;31.40;35.10;;;;;;4960556;28;20050;-72
2022/08/25 11:41:59;;;;;;;;;;;31.50;35.90;;;;;;4991710;28;20406;-68
2022/08/25 11:44:44;;;;;;;5.72;2.40;;;31.40;36.00;;;;;;4983838;28;19925;-68
2022/08/25 11:47:31;;;;;;;3.13;2.10;;;31.50;35.20;;;;;;4983839;28;20386;-68
2022/08/25 11:49:58;;;;;;;3.75;2.00;;;31.50;34.90;;;;;;4977776;28;20146;-68
2022/08/25 11:52:33;;;;;;;4.30;1.98;;;31.50;34.80;;;;;;4990842;28;20042;-68
2022/08/25 11:55:21;;;;;;;5.00;2.10;;;31.50;34.50;;;;;;4973639;28;20086;-66
2022/08/25 11:57:50;;;;;;;3.40;2.15;;;31.50;34.50;;;;;;4977031;28;20044;-66
2022/08/25 12:00:36;;;;;;;3.45;2.00;;;31.70;34.40;;;;;;4987061;28;20053;-67
2022/08/25 12:03:35;;;;;;;4.20;2.10;;;31.70;34.50;;;;;;4978374;28;20038;-66
2022/08/25 12:06:26;;;;;;;3.78;2.22;;;31.60;34.80;;;;;;4976729;28;20057;-67
2022/08/25 12:09:02;;;;;;;4.97;2.58;;;31.60;34.60;;;;;;4988368;28;20101;-67
2022/08/25 12:11:36;;;;;;;3.63;1.60;;;31.60;34.70;;;;;;4986777;28;20050;-69
2022/08/25 12:14:16;;;;;;;3.08;2.08;;;31.60;34.40;;;;;;4987406;28;20081;-69
2022/08/25 12:17:04;;;;;;;2.47;1.67;;;31.60;34.10;;;;;;4988507;28;20054;-66
2022/08/25 12:19:35;;;;;;;5.05;2.00;;;31.60;34.20;;;;;;4988875;28;20142;-67
2022/08/25 12:22:01;;;;;;;3.80;1.90;;;31.60;33.90;;;;;;4987870;28;20042;-67
2022/08/25 12:24:42;;;;;;;4.55;1.80;;;31.60;33.80;;;;;;4988617;28;20052;-68
2022/08/25 12:27:35;;;;;;;3.30;1.88;;;31.70;34.00;;;;;;4988554;28;20121;-68
2022/08/25 12:30:18;;;;;;;3.75;1.60;;;31.70;34.20;;;;;;4989130;28;20037;-69
2022/08/25 12:33:08;;;;;;;4.97;2.20;;;31.70;33.80;;;;;;4990041;28;20520;-69
2022/08/25 12:35:57;;;;;;;3.00;1.83;;;31.70;33.60;;;;;;4988359;28;20045;-70
2022/08/25 12:38:29;;;;;;;5.22;2.28;;;31.80;33.00;;;;;;4987109;28;20034;-68
2022/08/25 12:41:21;;;;;;;3.65;1.90;;;31.90;33.30;;;;;;4987677;28;20038;-67
2022/08/25 12:43:49;;;;;;;2.50;2.00;;;31.90;33.50;;;;;;4976813;28;20129;-69
2022/08/25 12:46:28;;;;;;;5.13;1.85;;;31.90;33.50;;;;;;4988664;28;20038;-69
2022/08/25 12:49:23;;;;;;;3.85;1.65;;;31.90;33.40;;;;;;4987387;28;20038;-69
2022/08/25 12:52:03;;;;;;;2.70;1.92;;;31.90;33.70;;;;;;4988480;28;20089;-69
2022/08/25 12:54:42;;;;;;;4.75;1.80;;;32.00;33.50;;;;;;4987898;28;20070;-69
2022/08/25 12:57:33;;;;;;;3.63;1.75;;;32.00;33.30;;;;;;4988185;28;20054;-69
2022/08/25 13:00:06;;;;;;;2.90;1.63;;;32.00;32.50;;;;;;4988697;28;20046;-69
2022/08/25 13:02:55;;;;;;;3.45;1.63;;;32.00;32.70;;;;;;4990604;28;20462;-69
2022/08/25 13:05:39;;;;;;;2.75;1.42;;;32.00;32.00;;;;;;4986902;28;20030;-67
2022/08/25 13:08:24;;;;;;;4.90;2.05;;;32.00;32.50;;;;;;4988755;28;20043;-68
2022/08/25 13:11:11;;;;;;;3.22;1.80;;;32.00;32.90;;;;;;4987587;28;20087;-68
2022/08/25 13:13:59;;;;;;;4.00;1.52;;;32.10;32.70;;;;;;4989944;28;20086;-68
2022/08/25 13:16:27;;;;;;;4.47;1.75;;;32.10;32.90;;;;;;4989416;28;20038;-68